Time;durP1;ratioP1;P1;durP2;ratioP2;P2;SDS_P1;SDS_P2;PMS_P1;PMS_P2;Temp;Humidity;BMP_temperature;BMP_pressure;BME280_temperature;BME280_humidity;BME280_pressure;Samples;Min_cycle;Max_cycle;Signal;HPM_P1;HPM_P2
2021/07/12 00:01:34;;;;;;;;;;;;;;;21.55;63.34;101203.72;5034603;28;2009;-57
2021/07/12 00:03:59;;;;;;;;;;;;;;;21.56;63.69;101196.44;5034640;28;902;-59
2021/07/12 00:06:24;;;;;;;;;;;;;;;21.56;63.73;101196.44;5034989;28;1964;-59
2021/07/12 00:08:49;;;;;;;;;;;;;;;21.57;63.04;101196.28;5034493;28;1901;-59
2021/07/12 00:11:14;;;;;;;;;;;;;;;21.59;63.37;101206.97;5034671;28;1824;-59
2021/07/12 00:13:39;;;;;;;;;;;;;;;21.57;63.31;101193.56;5033006;28;1451;-59
2021/07/12 00:16:04;;;;;;;;;;;;;;;21.54;63.06;101193.88;5034649;28;1545;-58
2021/07/12 00:18:29;;;;;;;;;;;;;;;21.51;63.15;101177.09;5034344;28;1878;-58
2021/07/12 00:20:54;;;;;;;;;;;;;;;21.51;63.11;101177.94;5034126;28;1939;-59
2021/07/12 00:23:19;;;;;;;;;;;;;;;21.50;63.31;101180.84;5034253;28;1970;-58
2021/07/12 00:25:44;;;;;;;;;;;;;;;21.50;62.96;101176.22;5034673;28;1976;-58
2021/07/12 00:28:10;;;;;;;;;;;;;;;21.49;63.50;101174.56;5034234;28;1856;-58
2021/07/12 00:30:35;;;;;;;;;;;;;;;21.48;63.19;101176.44;5036816;28;1036;-58
2021/07/12 00:33:00;;;;;;;;;;;;;;;21.48;62.92;101172.88;5037522;28;922;-59
2021/07/12 00:35:25;;;;;;;;;;;;;;;21.47;62.99;101172.00;5037861;28;1812;-59
2021/07/12 00:37:50;;;;;;;;;;;;;;;21.46;63.11;101177.59;5037731;28;1940;-59
2021/07/12 00:40:15;;;;;;;;;;;;;;;21.46;62.84;101174.88;5037892;28;1904;-59
2021/07/12 00:42:40;;;;;;;;;;;;;;;21.45;63.18;101168.59;5037348;28;1935;-58
2021/07/12 00:45:05;;;;;;;;;;;;;;;21.44;62.61;101163.34;5037952;28;1025;-58
2021/07/12 00:47:30;;;;;;;;;;;;;;;21.43;63.04;101158.94;5037564;28;1897;-59
2021/07/12 00:49:55;;;;;;;;;;;;;;;21.42;63.08;101157.22;5037629;28;1987;-59
2021/07/12 00:52:20;;;;;;;;;;;;;;;21.41;62.71;101152.81;5037721;28;1650;-59
2021/07/12 00:54:45;;;;;;;;;;;;;;;21.42;63.02;101151.81;5036952;28;1809;-59
2021/07/12 00:57:10;;;;;;;;;;;;;;;21.41;62.49;101152.81;5036919;28;1831;-59
2021/07/12 00:59:36;;;;;;;;;;;;;;;21.40;62.84;101151.97;5037273;28;1785;-59
2021/07/12 01:02:01;;;;;;;;;;;;;;;21.42;63.10;101151.81;5037268;28;2029;-60
2021/07/12 01:04:26;;;;;;;;;;;;;;;21.42;62.63;101154.53;5037439;28;1762;-60
2021/07/12 01:06:51;;;;;;;;;;;;;;;21.40;62.97;101145.69;5037093;28;1894;-60
2021/07/12 01:09:16;;;;;;;;;;;;;;;21.38;62.54;101140.44;5037038;28;2003;-59
2021/07/12 01:11:41;;;;;;;;;;;;;;;21.37;62.68;101138.72;5037301;28;1840;-59
2021/07/12 01:14:06;;;;;;;;;;;;;;;21.37;62.60;101132.47;5037142;28;1850;-59
2021/07/12 01:16:32;;;;;;;;;;;;;;;21.35;62.62;101135.31;5036988;28;1866;-59
2021/07/12 01:18:57;;;;;;;;;;;;;;;21.37;62.44;101138.72;5037005;28;2037;-59
2021/07/12 01:21:24;;;;;;;;;;;;;;;21.36;62.33;101137.03;5037333;28;1061;-59
2021/07/12 01:23:49;;;;;;;;;;;;;;;21.36;62.74;101136.19;5036827;28;1771;-59
2021/07/12 01:26:14;;;;;;;;;;;;;;;21.34;62.24;101130.06;5037083;28;1973;-59
2021/07/12 01:28:39;;;;;;;;;;;;;;;21.32;63.36;101123.94;5037244;28;1844;-59
2021/07/12 01:31:04;;;;;;;;;;;;;;;21.32;62.46;101129.38;5036728;28;1776;-56
2021/07/12 01:33:29;;;;;;;;;;;;;;;21.32;62.20;101123.94;5037042;28;1756;-57
2021/07/12 01:35:54;;;;;;;;;;;;;;;21.31;62.71;101120.41;5036765;28;1005;-57
2021/07/12 01:38:19;;;;;;;;;;;;;;;21.31;62.84;101127.69;5036244;28;1883;-58
2021/07/12 01:40:44;;;;;;;;;;;;;;;21.30;62.38;101126.84;5034858;28;1466;-58
2021/07/12 01:43:09;;;;;;;;;;;;;;;21.30;62.23;101128.72;5036565;28;1791;-59
2021/07/12 01:45:34;;;;;;;;;;;;;;;21.29;61.98;101125.16;5036425;28;1894;-58
2021/07/12 01:48:00;;;;;;;;;;;;;;;21.27;62.76;101121.75;5036663;28;1680;-58
2021/07/12 01:50:25;;;;;;;;;;;;;;;21.27;62.70;101126.31;5036741;28;955;-60
2021/07/12 01:52:50;;;;;;;;;;;;;;;21.26;62.63;101122.75;5036824;28;1484;-59
2021/07/12 01:55:15;;;;;;;;;;;;;;;21.26;62.16;101121.91;5036234;28;1938;-59
2021/07/12 01:57:40;;;;;;;;;;;;;;;21.24;62.41;101121.22;5036388;28;1792;-58
2021/07/12 02:00:06;;;;;;;;;;;;;;;21.25;62.53;101133.75;5036256;28;984;-58
2021/07/12 02:02:31;;;;;;;;;;;;;;;21.24;62.04;101126.63;5036665;28;1835;-58
2021/07/12 02:04:56;;;;;;;;;;;;;;;21.23;62.56;101122.22;5035845;28;1878;-58
2021/07/12 02:07:21;;;;;;;;;;;;;;;21.24;62.61;101126.63;5035827;28;1949;-58
2021/07/12 02:09:46;;;;;;;;;;;;;;;21.21;62.34;101121.53;5035984;28;970;-59
2021/07/12 02:12:11;;;;;;;;;;;;;;;21.21;62.17;101107.97;5035698;28;1795;-57
2021/07/12 02:14:36;;;;;;;;;;;;;;;21.21;61.95;101107.97;5035881;28;1774;-58
2021/07/12 02:17:01;;;;;;;;;;;;;;;21.20;62.00;101103.56;5035593;28;1929;-58
2021/07/12 02:19:27;;;;;;;;;;;;;;;21.20;62.85;101098.16;5035839;28;1858;-58
2021/07/12 02:21:52;;;;;;;;;;;;;;;21.18;62.34;101095.56;5035996;28;863;-59
2021/07/12 02:24:17;;;;;;;;;;;;;;;21.18;61.89;101094.72;5035725;28;1931;-59
2021/07/12 02:26:42;;;;;;;;;;;;;;;21.17;62.28;101099.28;5035767;28;1918;-59
2021/07/12 02:29:07;;;;;;;;;;;;;;;21.18;62.09;101094.72;5035808;28;1781;-59
2021/07/12 02:31:32;;;;;;;;;;;;;;;21.17;62.45;101098.44;5035860;28;874;-58
2021/07/12 02:33:57;;;;;;;;;;;;;;;21.15;62.31;101085.91;5035426;28;1959;-59
2021/07/12 02:36:22;;;;;;;;;;;;;;;21.17;61.89;101093.00;5035273;28;1936;-58
2021/07/12 02:38:47;;;;;;;;;;;;;;;21.14;62.00;101092.31;5035038;28;1944;-59
2021/07/12 02:41:12;;;;;;;;;;;;;;;21.13;61.87;101087.94;5035368;28;917;-59
2021/07/12 02:43:38;;;;;;;;;;;;;;;21.13;62.41;101093.38;5035103;28;1820;-59
2021/07/12 02:46:03;;;;;;;;;;;;;;;21.12;62.28;101079.97;5035352;28;1905;-59
2021/07/12 02:48:28;;;;;;;;;;;;;;;21.12;62.48;101075.41;5035459;28;1845;-59
2021/07/12 02:50:53;;;;;;;;;;;;;;;21.12;61.92;101074.56;5035290;28;1865;-59
2021/07/12 02:53:18;;;;;;;;;;;;;;;21.11;62.05;101076.41;5035249;28;1021;-59
2021/07/12 02:55:43;;;;;;;;;;;;;;;21.10;62.10;101082.84;5035055;28;941;-59
2021/07/12 02:58:08;;;;;;;;;;;;;;;21.11;62.26;101071.00;5035136;28;936;-57
2021/07/12 03:00:33;;;;;;;;;;;;;;;21.08;61.84;101068.59;5035458;28;1923;-58
2021/07/12 03:02:58;;;;;;;;;;;;;;;21.08;62.39;101070.47;5035325;28;1909;-58
2021/07/12 03:05:24;;;;;;;;;;;;;;;21.08;62.37;101062.34;5034796;28;1795;-56
2021/07/12 03:07:49;;;;;;;;;;;;;;;21.06;62.11;101057.06;5035267;28;1890;-58
2021/07/12 03:10:14;;;;;;;;;;;;;;;21.06;62.11;101059.78;5035323;28;1796;-58
2021/07/12 03:12:39;;;;;;;;;;;;;;;21.05;61.40;101049.09;5034551;28;1804;-58
2021/07/12 03:15:04;;;;;;;;;;;;;;;21.05;61.92;101057.22;5035236;28;1052;-58
2021/07/12 03:17:30;;;;;;;;;;;;;;;21.05;61.84;101047.25;5035066;28;957;-58
2021/07/12 03:19:55;;;;;;;;;;;;;;;21.04;62.01;101056.38;5034950;28;1979;-58
2021/07/12 03:22:20;;;;;;;;;;;;;;;21.03;62.01;101049.25;5035171;28;1919;-58
2021/07/12 03:24:45;;;;;;;;;;;;;;;21.03;61.98;101043.84;5034721;28;1052;-58
2021/07/12 03:27:10;;;;;;;;;;;;;;;21.02;62.02;101041.28;5035020;28;1973;-58
2021/07/12 03:29:35;;;;;;;;;;;;;;;21.01;61.92;101051.28;5034677;28;1801;-57
2021/07/12 03:32:00;;;;;;;;;;;;;;;21.01;61.83;101045.00;5035062;28;1013;-58
2021/07/12 03:34:25;;;;;;;;;;;;;;;21.00;61.80;101040.59;5034541;28;1986;-57
2021/07/12 03:36:50;;;;;;;;;;;;;;;21.00;62.28;101046.88;5035049;28;1008;-58
2021/07/12 03:39:15;;;;;;;;;;;;;;;20.98;61.95;101046.19;5034682;28;1985;-57
2021/07/12 03:41:40;;;;;;;;;;;;;;;20.98;61.82;101042.63;5034553;28;1922;-58
2021/07/12 03:44:05;;;;;;;;;;;;;;;20.98;61.85;101045.34;5034525;28;1941;-58
2021/07/12 03:46:30;;;;;;;;;;;;;;;20.99;61.58;101037.03;5035343;28;1952;-58
2021/07/12 03:48:55;;;;;;;;;;;;;;;20.98;61.69;101039.91;5034997;28;1809;-59
2021/07/12 03:51:20;;;;;;;;;;;;;;;20.96;62.04;101031.94;5034968;28;902;-58
2021/07/12 03:53:46;;;;;;;;;;;;;;;20.95;62.02;101038.41;5034318;28;1867;-59
2021/07/12 03:56:11;;;;;;;;;;;;;;;20.96;61.85;101048.19;5034694;28;1638;-58
2021/07/12 03:58:36;;;;;;;;;;;;;;;20.96;62.34;101047.38;5034882;28;1008;-58
2021/07/12 04:01:01;;;;;;;;;;;;;;;20.96;61.88;101047.38;5034436;28;1942;-58
2021/07/12 04:03:26;;;;;;;;;;;;;;;20.97;62.13;101049.06;5034515;28;1854;-58
2021/07/12 04:05:51;;;;;;;;;;;;;;;20.95;61.75;101049.25;5037689;28;1976;-59
2021/07/12 04:08:16;;;;;;;;;;;;;;;20.95;62.19;101046.53;5038329;28;1979;-59
2021/07/12 04:10:41;;;;;;;;;;;;;;;20.94;61.50;101043.97;5038132;28;1935;-59
2021/07/12 04:13:08;;;;;;;;;;;;;;;20.94;62.08;101042.13;5038550;28;922;-59
2021/07/12 04:15:33;;;;;;;;;;;;;;;20.95;62.11;101040.25;5038308;28;854;-60
2021/07/12 04:17:58;;;;;;;;;;;;;;;20.95;61.99;101045.69;5038246;28;864;-60
2021/07/12 04:20:23;;;;;;;;;;;;;;;20.94;62.56;101042.13;5038344;28;1854;-57
2021/07/12 04:22:48;;;;;;;;;;;;;;;20.93;61.81;101043.13;5038161;28;1769;-56
2021/07/12 04:25:13;;;;;;;;;;;;;;;20.95;62.25;101045.69;5038194;28;1835;-57
2021/07/12 04:27:38;;;;;;;;;;;;;;;20.94;62.27;101038.56;5037809;28;1914;-57
2021/07/12 04:30:03;;;;;;;;;;;;;;;20.95;62.12;101041.13;5038176;28;1530;-58
2021/07/12 04:32:29;;;;;;;;;;;;;;;20.92;62.17;101041.44;5038219;28;1670;-59
2021/07/12 04:34:54;;;;;;;;;;;;;;;20.94;61.98;101039.41;5037994;28;1943;-59
2021/07/12 04:37:19;;;;;;;;;;;;;;;20.89;62.46;101036.34;5037374;28;1803;-59
2021/07/12 04:39:44;;;;;;;;;;;;;;;20.91;62.22;101037.03;5038067;28;1970;-59
2021/07/12 04:42:09;;;;;;;;;;;;;;;20.92;63.04;101037.88;5037702;28;1504;-58
2021/07/12 04:44:34;;;;;;;;;;;;;;;20.93;62.58;101040.41;5037461;28;1601;-58
2021/07/12 04:47:00;;;;;;;;;;;;;;;20.93;62.43;101036.88;5038106;28;1902;-58
2021/07/12 04:49:26;;;;;;;;;;;;;;;20.92;62.67;101037.88;5037571;28;1523;-59
2021/07/12 04:51:51;;;;;;;;;;;;;;;20.93;62.94;101035.00;5036086;28;1578;-58
2021/07/12 04:54:16;;;;;;;;;;;;;;;20.93;62.61;101036.88;5037247;28;1884;-58
2021/07/12 04:56:41;;;;;;;;;;;;;;;20.93;62.58;101032.28;5037313;28;1746;-58
2021/07/12 04:59:09;;;;;;;;;;;;;;;20.91;63.35;101022.63;5036914;28;1773;-58
2021/07/12 05:01:34;;;;;;;;;;;;;;;20.90;63.09;101020.94;5037377;28;1841;-59
2021/07/12 05:03:59;;;;;;;;;;;;;;;20.95;63.12;101014.03;5036924;28;1961;-59
2021/07/12 05:06:24;;;;;;;;;;;;;;;20.95;63.33;101024.00;5037104;28;1949;-59
2021/07/12 05:08:49;;;;;;;;;;;;;;;20.97;63.03;101016.53;5037272;28;1814;-59
2021/07/12 05:11:14;;;;;;;;;;;;;;;21.04;62.79;101018.44;5036873;28;1943;-59
2021/07/12 05:13:41;;;;;;;;;;;;;;;21.19;62.70;101015.94;5036780;28;1709;-59
2021/07/12 05:16:06;;;;;;;;;;;;;;;21.31;62.29;100998.44;5036520;28;1802;-58
2021/07/12 05:18:32;;;;;;;;;;;;;;;21.40;63.61;100997.41;5037385;28;1751;-59
2021/07/12 05:20:57;;;;;;;;;;;;;;;21.39;63.57;101003.00;5036395;28;1703;-58
2021/07/12 05:23:22;;;;;;;;;;;;;;;21.24;64.73;100993.81;5035976;28;1655;-58
2021/07/12 05:25:48;;;;;;;;;;;;;;;21.02;65.25;100987.94;5035927;28;1919;-58
2021/07/12 05:28:13;;;;;;;;;;;;;;;21.17;64.79;100980.03;5033969;28;1700;-58
2021/07/12 05:30:39;;;;;;;;;;;;;;;21.07;65.08;100985.59;5025178;28;1964;-58
2021/07/12 05:33:05;;;;;;;;;;;;;;;21.12;64.80;100979.69;5035424;28;1796;-58
2021/07/12 05:35:30;;;;;;;;;;;;;;;20.93;65.64;100983.53;5035476;28;1695;-58
2021/07/12 05:37:56;;;;;;;;;;;;;;;20.77;65.51;100981.59;5035795;28;1619;-58
2021/07/12 05:40:21;;;;;;;;;;;;;;;20.65;66.41;100973.91;5033965;28;1721;-58
2021/07/12 05:42:46;;;;;;;;;;;;;;;20.69;65.70;100972.56;5035260;28;1742;-58
2021/07/12 05:45:11;;;;;;;;;;;;;;;21.03;64.96;100976.09;5033493;28;1770;-58
2021/07/12 05:47:36;;;;;;;;;;;;;;;21.02;64.70;100970.84;5035923;28;1902;-58
2021/07/12 05:50:01;;;;;;;;;;;;;;;21.23;64.00;100970.44;5036556;28;1008;-59
2021/07/12 05:52:27;;;;;;;;;;;;;;;21.20;64.28;100971.59;5036085;28;1025;-58
2021/07/12 05:54:52;;;;;;;;;;;;;;;21.23;64.05;100970.44;5036538;28;1587;-58
2021/07/12 05:57:17;;;;;;;;;;;;;;;20.95;65.43;100976.09;5036557;28;858;-58
2021/07/12 05:59:42;;;;;;;;;;;;;;;20.85;65.93;100967.22;5035921;28;1980;-58
2021/07/12 06:02:07;;;;;;;;;;;;;;;21.01;64.69;100974.56;5035323;28;1748;-58
2021/07/12 06:04:32;;;;;;;;;;;;;;;21.26;64.45;100967.41;5035794;28;1494;-58
2021/07/12 06:06:57;;;;;;;;;;;;;;;21.31;64.87;100973.19;5035298;28;1922;-58
2021/07/12 06:09:22;;;;;;;;;;;;;;;21.31;64.71;100971.31;5034257;28;2068;-58
2021/07/12 06:11:47;;;;;;;;;;;;;;;21.15;65.24;100969.34;5016465;28;2023;-58
2021/07/12 06:14:12;;;;;;;;;;;;;;;21.23;64.86;100975.84;5017315;28;1980;-59
2021/07/12 06:16:37;;;;;;;;;;;;;;;21.10;64.98;100969.03;5020113;28;1858;-59
2021/07/12 06:19:02;;;;;;;;;;;;;;;21.04;64.58;100964.25;5016302;28;2153;-58
2021/07/12 06:21:27;;;;;;;;;;;;;;;21.07;64.86;100968.50;5018315;28;2112;-58
2021/07/12 06:23:53;;;;;;;;;;;;;;;21.04;65.36;100969.66;5033708;28;1997;-58
2021/07/12 06:26:18;;;;;;;;;;;;;;;20.97;65.73;100975.91;5035938;28;1886;-59
2021/07/12 06:28:43;;;;;;;;;;;;;;;20.95;65.50;100969.81;5034533;28;1960;-58
2021/07/12 06:31:08;;;;;;;;;;;;;;;20.87;65.37;100981.47;5020119;28;1920;-59
2021/07/12 06:33:33;;;;;;;;;;;;;;;21.02;65.43;100979.81;5034950;28;2101;-58
2021/07/12 06:35:58;;;;;;;;;;;;;;;21.11;64.69;100981.56;5035855;28;842;-58
2021/07/12 06:38:23;;;;;;;;;;;;;;;21.02;65.41;100987.09;5028404;28;1966;-58
2021/07/12 06:40:48;;;;;;;;;;;;;;;20.98;65.45;100981.16;5016038;28;898;-58
2021/07/12 06:43:13;;;;;;;;;;;;;;;21.03;65.30;100983.38;5029527;28;1986;-58
2021/07/12 06:45:38;;;;;;;;;;;;;;;21.01;65.10;100986.25;5035776;28;1889;-58
2021/07/12 06:48:04;;;;;;;;;;;;;;;20.95;65.38;100986.94;5035035;28;2064;-58
2021/07/12 06:50:29;;;;;;;;;;;;;;;21.07;65.23;100991.03;5015763;28;870;-58
2021/07/12 06:52:54;;;;;;;;;;;;;;;21.09;64.51;100989.00;5019934;28;2012;-58
2021/07/12 06:55:19;;;;;;;;;;;;;;;21.17;65.03;100990.88;5035434;28;1021;-58
2021/07/12 06:57:44;;;;;;;;;;;;;;;21.16;64.48;100997.31;5035520;28;969;-58
2021/07/12 07:00:09;;;;;;;;;;;;;;;21.11;64.77;100996.97;5018104;28;2171;-58
2021/07/12 07:02:35;;;;;;;;;;;;;;;21.22;64.51;100993.13;5029249;28;1972;-58
2021/07/12 07:05:00;;;;;;;;;;;;;;;21.25;64.78;100984.69;5025918;28;2028;-58
2021/07/12 07:07:25;;;;;;;;;;;;;;;21.30;64.94;100976.91;5034921;28;2085;-58
2021/07/12 07:09:50;;;;;;;;;;;;;;;21.25;65.11;100971.13;5017521;28;2048;-58
2021/07/12 07:12:16;;;;;;;;;;;;;;;21.28;64.36;100970.78;5015380;28;1972;-58
2021/07/12 07:14:41;;;;;;;;;;;;;;;21.33;63.90;100984.69;5015645;28;1077;-58
2021/07/12 07:17:06;;;;;;;;;;;;;;;21.34;64.21;100972.81;5015269;28;969;-58
2021/07/12 07:19:31;;;;;;;;;;;;;;;21.29;63.99;100967.06;5015509;28;2122;-58
2021/07/12 07:21:56;;;;;;;;;;;;;;;21.29;63.80;100964.38;5015175;28;811;-58
2021/07/12 07:24:21;;;;;;;;;;;;;;;21.34;63.15;100960.13;5027008;28;1947;-59
2021/07/12 07:26:46;;;;;;;;;;;;;;;21.36;63.02;100946.41;5034732;28;1893;-59
2021/07/12 07:29:12;;;;;;;;;;;;;;;21.38;62.46;100949.78;5033454;28;1960;-58
2021/07/12 07:31:37;;;;;;;;;;;;;;;21.40;62.67;100950.47;5034965;28;1978;-59
2021/07/12 07:34:02;;;;;;;;;;;;;;;21.40;62.97;100954.03;5034770;28;1995;-58
2021/07/12 07:36:27;;;;;;;;;;;;;;;21.45;62.22;100950.84;5035022;28;2130;-59
2021/07/12 07:38:52;;;;;;;;;;;;;;;21.47;62.40;100948.81;5034649;28;2173;-58
2021/07/12 07:41:19;;;;;;;;;;;;;;;21.50;62.57;100955.75;5024090;28;1940;-58
2021/07/12 07:43:44;;;;;;;;;;;;;;;21.53;62.09;100942.69;5034745;28;1939;-59
2021/07/12 07:46:09;;;;;;;;;;;;;;;21.50;62.76;100939.50;5038447;28;1893;-58
2021/07/12 07:48:34;;;;;;;;;;;;;;;21.50;63.04;100940.31;5036910;28;2149;-58
2021/07/12 07:50:59;;;;;;;;;;;;;;;21.50;62.45;100936.78;5037920;28;2031;-58
2021/07/12 07:53:25;;;;;;;;;;;;;;;21.47;62.90;100937.97;5038812;28;822;-58
2021/07/12 07:55:50;;;;;;;;;;;;;;;21.48;61.81;100934.22;5038699;28;822;-59
2021/07/12 07:58:15;;;;;;;;;;;;;;;21.46;61.86;100926.25;5037016;28;2175;-58
2021/07/12 08:00:40;;;;;;;;;;;;;;;21.44;62.09;100939.13;5037984;28;1989;-59
2021/07/12 08:03:05;;;;;;;;;;;;;;;21.33;61.22;100930.47;5037340;28;2031;-58
2021/07/12 08:05:31;;;;;;;;;;;;;;;21.29;61.11;100937.25;5018584;28;791;-59
2021/07/12 08:07:56;;;;;;;;;;;;;;;21.28;61.85;100927.41;5022083;28;1989;-59
2021/07/12 08:10:21;;;;;;;;;;;;;;;21.27;60.94;100931.16;5038034;28;2176;-58
2021/07/12 08:12:46;;;;;;;;;;;;;;;21.26;61.17;100934.88;5029542;28;2086;-58
2021/07/12 08:15:11;;;;;;;;;;;;;;;21.28;60.69;100927.41;5038579;28;944;-59
2021/07/12 08:17:37;;;;;;;;;;;;;;;21.30;60.73;100925.41;5038007;28;1473;-59
2021/07/12 08:20:02;;;;;;;;;;;;;;;21.33;60.29;100928.59;5037677;28;2152;-58
2021/07/12 08:22:27;;;;;;;;;;;;;;;21.39;60.33;100922.50;5026064;28;2015;-58
2021/07/12 08:24:52;;;;;;;;;;;;;;;21.45;60.69;100919.13;5018840;28;910;-58
2021/07/12 08:27:17;;;;;;;;;;;;;;;21.48;60.27;100909.81;5017904;28;1894;-59
2021/07/12 08:29:42;;;;;;;;;;;;;;;21.52;59.81;100916.59;5018469;28;2086;-58
2021/07/12 08:32:07;;;;;;;;;;;;;;;21.52;60.19;100918.44;5018608;28;1010;-58
2021/07/12 08:34:39;;;;;;;;;;;;;;;21.55;59.43;100910.81;5018038;28;2031;-58
2021/07/12 08:37:04;;;;;;;;;;;;;;;21.58;59.80;100910.50;5018872;28;1975;-58
2021/07/12 08:39:29;;;;;;;;;;;;;;;21.63;59.57;100910.00;5027017;28;2094;-58
2021/07/12 08:41:54;;;;;;;;;;;;;;;21.60;59.51;100911.19;5033412;28;1948;-58
2021/07/12 08:44:19;;;;;;;;;;;;;;;21.62;59.76;100898.31;5017568;28;998;-58
2021/07/12 08:46:44;;;;;;;;;;;;;;;21.67;59.37;100895.94;5018164;28;1894;-59
2021/07/12 08:49:09;;;;;;;;;;;;;;;21.71;59.56;100897.25;5017942;28;1996;-58
2021/07/12 08:51:34;;;;;;;;;;;;;;;21.69;59.55;100893.88;5016983;28;1009;-58
2021/07/12 08:53:59;;;;;;;;;;;;;;;21.73;59.21;100889.81;5025437;28;1951;-58
2021/07/12 08:56:24;;;;;;;;;;;;;;;21.73;58.81;100894.38;5037552;28;1069;-58
2021/07/12 08:58:49;;;;;;;;;;;;;;;21.76;58.79;100894.88;5036072;28;2090;-58
2021/07/12 09:01:14;;;;;;;;;;;;;;;21.77;59.09;100895.75;5028592;28;1933;-58
2021/07/12 09:03:39;;;;;;;;;;;;;;;21.75;59.28;100889.63;5017804;28;1648;-58
2021/07/12 09:06:05;;;;;;;;;;;;;;;21.81;58.63;100886.25;5017416;28;1990;-58
2021/07/12 09:08:30;;;;;;;;;;;;;;;21.79;58.89;100883.69;5020029;28;2053;-58
2021/07/12 09:10:55;;;;;;;;;;;;;;;21.86;58.67;100886.56;5026471;28;2040;-58
2021/07/12 09:13:20;;;;;;;;;;;;;;;21.87;58.11;100879.25;5036965;28;1956;-58
2021/07/12 09:15:45;;;;;;;;;;;;;;;21.86;58.65;100878.41;5037519;28;933;-58
2021/07/12 09:18:10;;;;;;;;;;;;;;;21.86;58.63;100886.56;5036464;28;1918;-58
2021/07/12 09:20:35;;;;;;;;;;;;;;;21.83;58.76;100892.34;5037502;28;1556;-58
2021/07/12 09:23:00;;;;;;;;;;;;;;;21.86;58.85;100883.00;5036360;28;2037;-58
2021/07/12 09:25:26;;;;;;;;;;;;;;;21.92;58.43;100882.31;5036479;28;2070;-58
2021/07/12 09:27:51;;;;;;;;;;;;;;;21.99;58.25;100872.47;5036310;28;2094;-58
2021/07/12 09:30:21;;;;;;;;;;;;;;;22.00;57.82;100877.78;5036685;28;1628;-58
2021/07/12 09:32:46;;;;;;;;;;;;;;;21.92;58.35;100879.59;5036896;28;890;-58
2021/07/12 09:35:11;;;;;;;;;;;;;;;22.04;57.63;100878.25;5036449;28;2071;-58
2021/07/12 09:37:38;;;;;;;;;;;;;;;22.03;58.14;100873.88;5033254;28;2053;-58
2021/07/12 09:40:03;;;;;;;;;;;;;;;22.01;57.75;100870.47;5036279;28;1806;-58
2021/07/12 09:42:28;;;;;;;;;;;;;;;22.01;57.71;100870.47;5036528;28;929;-58
2021/07/12 09:44:53;;;;;;;;;;;;;;;21.98;57.84;100862.66;5036387;28;1988;-58
2021/07/12 09:47:19;;;;;;;;;;;;;;;22.01;58.22;100870.47;5036539;28;1902;-58
2021/07/12 09:49:45;;;;;;;;;;;;;;;22.06;58.20;100868.91;5036187;28;2056;-58
2021/07/12 09:52:10;;;;;;;;;;;;;;;22.11;58.15;100865.69;5036162;28;882;-58
2021/07/12 09:54:36;;;;;;;;;;;;;;;22.10;57.88;100866.72;5023357;28;2000;-58
2021/07/12 09:57:01;;;;;;;;;;;;;;;22.12;57.91;100856.53;5016926;28;1953;-58
2021/07/12 09:59:26;;;;;;;;;;;;;;;22.12;58.25;100856.53;5016722;28;997;-58
2021/07/12 10:01:52;;;;;;;;;;;;;;;22.09;58.35;100851.44;5016575;28;2039;-58
2021/07/12 10:04:17;;;;;;;;;;;;;;;22.12;58.09;100854.66;5017111;28;818;-58
2021/07/12 10:06:42;;;;;;;;;;;;;;;22.16;57.73;100841.59;5016113;28;2071;-58
2021/07/12 10:09:07;;;;;;;;;;;;;;;22.22;57.71;100851.72;5017384;28;2327;-58
2021/07/12 10:11:32;;;;;;;;;;;;;;;22.17;57.83;100846.00;5016452;28;853;-58
2021/07/12 10:13:58;;;;;;;;;;;;;;;22.15;58.12;100839.91;5016258;28;2051;-58
2021/07/12 10:16:23;;;;;;;;;;;;;;;22.11;58.03;100843.97;5016566;28;884;-58
2021/07/12 10:18:48;;;;;;;;;;;;;;;22.13;57.86;100840.06;5016020;28;2036;-59
2021/07/12 10:21:13;;;;;;;;;;;;;;;22.14;57.68;100846.34;5016250;28;1009;-58
2021/07/12 10:23:38;;;;;;;;;;;;;;;22.14;58.07;100847.19;5016198;28;934;-58
2021/07/12 10:26:03;;;;;;;;;;;;;;;22.14;57.22;100839.06;5032161;28;2241;-58
2021/07/12 10:28:28;;;;;;;;;;;;;;;22.14;57.55;100833.63;5035226;28;1942;-58
2021/07/12 10:30:53;;;;;;;;;;;;;;;22.13;58.02;100839.22;5031766;28;1997;-58
2021/07/12 10:33:19;;;;;;;;;;;;;;;22.22;57.69;100834.59;5015543;28;819;-58
2021/07/12 10:35:44;;;;;;;;;;;;;;;22.25;57.34;100831.53;5015680;28;844;-58
2021/07/12 10:38:09;;;;;;;;;;;;;;;22.23;57.41;100823.56;5020510;28;3125;-58
2021/07/12 10:40:34;;;;;;;;;;;;;;;22.26;57.26;100825.94;5027135;28;1781;-58
2021/07/12 10:42:59;;;;;;;;;;;;;;;22.27;57.39;100827.63;5035006;28;2034;-58
2021/07/12 10:45:24;;;;;;;;;;;;;;;22.32;56.80;100830.66;5034138;28;1813;-58
2021/07/12 10:47:49;;;;;;;;;;;;;;;22.31;56.95;100822.69;5035256;28;1898;-58
2021/07/12 10:50:14;;;;;;;;;;;;;;;22.25;57.02;100826.94;5017601;28;2067;-58
2021/07/12 10:52:39;;;;;;;;;;;;;;;22.27;56.67;100822.19;5015602;28;823;-58
2021/07/12 10:55:04;;;;;;;;;;;;;;;22.27;56.72;100824.91;5016732;28;2068;-58
2021/07/12 10:57:30;;;;;;;;;;;;;;;22.29;56.72;100814.72;5030855;28;1763;-58
2021/07/12 10:59:55;;;;;;;;;;;;;;;22.25;57.10;100816.09;5035031;28;939;-58
2021/07/12 11:02:20;;;;;;;;;;;;;;;22.23;57.43;100809.13;5035378;28;945;-58
2021/07/12 11:04:47;;;;;;;;;;;;;;;22.22;57.72;100810.16;5033606;28;1980;-58
2021/07/12 11:07:13;;;;;;;;;;;;;;;22.25;57.31;100804.38;5035278;28;1917;-58
2021/07/12 11:09:38;;;;;;;;;;;;;;;22.29;56.92;100806.59;5024945;28;2067;-58
2021/07/12 11:12:03;;;;;;;;;;;;;;;22.32;56.17;100803.53;5034030;28;2034;-58
2021/07/12 11:14:29;;;;;;;;;;;;;;;22.35;56.07;100811.31;5015076;28;1049;-58
2021/07/12 11:16:54;;;;;;;;;;;;;;;22.37;55.99;100811.13;5015020;28;854;-59
2021/07/12 11:19:19;;;;;;;;;;;;;;;22.39;55.54;100809.91;5015307;28;2022;-58
2021/07/12 11:21:44;;;;;;;;;;;;;;;22.37;55.59;100812.00;5015253;28;835;-58
2021/07/12 11:24:09;;;;;;;;;;;;;;;22.35;55.77;100822.19;5016325;28;2041;-58
2021/07/12 11:26:34;;;;;;;;;;;;;;;22.33;55.70;100818.78;5015410;28;1957;-58
2021/07/12 11:28:59;;;;;;;;;;;;;;;22.33;55.49;100809.78;5023934;28;1979;-58
2021/07/12 11:31:24;;;;;;;;;;;;;;;22.35;55.11;100815.91;5034947;28;2037;-59
2021/07/12 11:33:49;;;;;;;;;;;;;;;22.36;55.12;100815.72;5023499;28;3084;-59
2021/07/12 11:36:14;;;;;;;;;;;;;;;22.32;55.88;100813.53;5015268;28;957;-59
2021/07/12 11:38:39;;;;;;;;;;;;;;;22.32;55.36;100808.94;5022165;28;1926;-59
2021/07/12 11:41:05;;;;;;;;;;;;;;;22.34;55.23;100812.34;5034493;28;2039;-59
2021/07/12 11:43:30;;;;;;;;;;;;;;;22.32;55.58;100803.53;5034174;28;1952;-59
2021/07/12 11:45:55;;;;;;;;;;;;;;;22.34;55.56;100806.91;5015979;28;1977;-59
2021/07/12 11:48:20;;;;;;;;;;;;;;;22.35;54.96;100794.19;5015196;28;1552;-59
2021/07/12 11:50:45;;;;;;;;;;;;;;;22.29;55.69;100795.72;5015036;28;1049;-59
2021/07/12 11:53:10;;;;;;;;;;;;;;;22.29;55.59;100798.44;5014821;28;2071;-59
2021/07/12 11:55:39;;;;;;;;;;;;;;;22.33;55.36;100801.66;5014823;28;934;-59
2021/07/12 11:58:04;;;;;;;;;;;;;;;22.34;55.37;100793.31;5015138;28;2057;-59
2021/07/12 12:00:29;;;;;;;;;;;;;;;22.32;56.09;100792.66;5023061;28;1981;-58
2021/07/12 12:02:54;;;;;;;;;;;;;;;22.33;56.22;100796.22;5035024;28;910;-59
2021/07/12 12:05:19;;;;;;;;;;;;;;;22.37;55.93;100792.97;5033051;28;2154;-59
2021/07/12 12:07:48;;;;;;;;;;;;;;;22.38;56.14;100799.25;5034330;28;1903;-59
2021/07/12 12:10:13;;;;;;;;;;;;;;;22.39;56.37;100798.25;5034342;28;1978;-59
2021/07/12 12:12:38;;;;;;;;;;;;;;;22.37;56.27;100798.41;5034660;28;846;-59
2021/07/12 12:15:03;;;;;;;;;;;;;;;22.37;56.31;100792.13;5034191;28;2027;-59
2021/07/12 12:17:28;;;;;;;;;;;;;;;22.38;56.00;100801.97;5017558;28;1940;-59
2021/07/12 12:19:53;;;;;;;;;;;;;;;22.36;56.33;100794.00;5014768;28;1424;-59
2021/07/12 12:22:19;;;;;;;;;;;;;;;22.39;56.40;100798.25;5023991;28;2095;-59
2021/07/12 12:24:44;;;;;;;;;;;;;;;22.37;56.21;100792.97;5021528;28;2065;-59
2021/07/12 12:27:09;;;;;;;;;;;;;;;22.38;56.25;100788.41;5017937;28;2070;-59
2021/07/12 12:29:34;;;;;;;;;;;;;;;22.39;56.51;100796.34;5018302;28;957;-59
2021/07/12 12:31:59;;;;;;;;;;;;;;;22.39;56.40;100799.06;5029847;28;2022;-59
2021/07/12 12:34:24;;;;;;;;;;;;;;;22.38;56.96;100789.25;5037371;28;2067;-59
2021/07/12 12:36:49;;;;;;;;;;;;;;;22.39;57.04;100790.91;5038049;28;1509;-59